Time;durP1;ratioP1;P1;durP2;ratioP2;P2;SDS_P1;SDS_P2;PMS_P1;PMS_P2;Temp;Humidity;BMP_temperature;BMP_pressure;BME280_temperature;BME280_humidity;BME280_pressure;Samples;Min_cycle;Max_cycle;Signal;HPM_P1;HPM_P2
2021/11/07 00:05:05;;;;;;;33.95;16.35;;;;;;;3.68;100.00;61372.69;5062780;28;20409;-73
2021/11/07 00:08:01;;;;;;;38.35;19.17;;;;;;;3.68;100.00;61373.28;5066295;28;20049;-72
2021/11/07 00:10:38;;;;;;;38.38;17.95;;;;;;;3.67;100.00;61372.63;5083003;28;20083;-72
2021/11/07 00:13:22;;;;;;;41.35;20.35;;;;;;;3.66;100.00;61371.31;5066805;28;20119;-73
2021/11/07 00:15:50;;;;;;;31.95;16.00;;;;;;;3.64;100.00;61370.44;5065413;28;21315;-73
2021/11/07 00:18:35;;;;;;;36.72;17.30;;;;;;;3.63;100.00;61369.25;5060736;28;20137;-72
2021/11/07 00:21:17;;;;;;;35.42;17.13;;;;;;;3.61;100.00;61367.66;5055900;28;20135;-73
2021/11/07 00:26:36;;;;;;;39.20;19.63;;;;;;;3.59;100.00;61364.19;5091980;28;20071;-72
2021/11/07 00:29:10;;;;;;;32.65;16.92;;;;;;;3.58;100.00;61363.50;5094340;28;20516;-73
2021/11/07 00:39:38;;;;;;;33.92;17.98;;;;;;;3.53;100.00;61358.03;5077724;28;20047;-73
2021/11/07 00:47:25;;;;;;;33.17;15.43;;;;;;;3.50;100.00;61354.69;5093773;28;20123;-72
2021/11/07 00:49:59;;;;;;;37.88;19.35;;;;;;;3.49;100.00;61353.69;5084220;28;20151;-72
2021/11/07 00:55:11;;;;;;;40.50;19.17;;;;;;;3.46;100.00;61350.28;5077725;28;20363;-72
2021/11/07 00:58:03;;;;;;;40.08;17.98;;;;;;;3.45;100.00;61349.19;5080890;28;20040;-72
2021/11/07 01:03:01;;;;;;;43.42;19.13;;;;;;;3.42;100.00;61346.03;5090530;28;20080;-74
2021/11/07 01:05:33;;;;;;;36.80;16.88;;;;;;;3.41;100.00;61344.97;5074977;28;20592;-73
2021/11/07 01:08:00;;;;;;;39.60;19.83;;;;;;;3.40;100.00;61344.00;5075681;28;20126;-74
2021/11/07 01:10:28;;;;;;;37.40;18.02;;;;;;;3.40;100.00;61343.44;5079739;28;20093;-74
2021/11/07 01:12:57;;;;;;;38.10;18.67;;;;;;;3.40;100.00;61343.28;5083002;28;20100;-74
2021/11/07 01:15:26;;;;;;;35.58;17.35;;;;;;;3.39;100.00;61342.75;5059264;28;20051;-74
2021/11/07 01:17:58;;;;;;;35.97;17.10;;;;;;;3.39;100.00;61342.53;5092006;28;20415;-74
2021/11/07 01:20:28;;;;;;;53.70;22.77;;;;;;;3.37;100.00;61340.56;5075354;28;20075;-74
2021/11/07 01:25:25;;;;;;;49.65;22.40;;;;;;;3.36;100.00;61339.22;5092062;28;20478;-74
2021/11/07 01:27:53;;;;;;;39.90;21.08;;;;;;;3.37;100.00;61339.88;5096654;28;20490;-74
2021/11/07 01:30:24;;;;;;;39.55;18.88;;;;;;;3.37;100.00;61339.88;5094809;28;20131;-73
2021/11/07 01:33:01;;;;;;;38.35;17.70;;;;;;;3.37;100.00;61339.81;5075182;28;20139;-74
2021/11/07 01:35:46;;;;;;;46.70;21.27;;;;;;;3.36;100.00;61339.28;5090983;28;20131;-74
2021/11/07 01:38:17;;;;;;;38.58;18.45;;;;;;;3.37;100.00;61339.88;5095805;28;20086;-74
2021/11/07 01:41:00;;;;;;;44.80;19.33;;;;;;;3.37;100.00;61340.84;5078022;28;20043;-74
2021/11/07 01:43:28;;;;;;;38.92;19.88;;;;;;;3.38;100.00;61341.06;5072110;28;20416;-74
2021/11/07 01:46:06;;;;;;;41.03;18.95;;;;;;;3.38;100.00;61341.78;5075481;28;20083;-74
2021/11/07 01:48:41;;;;;;;44.47;20.50;;;;;;;3.38;100.00;61341.66;5093421;28;20417;-74
2021/11/07 01:51:10;;;;;;;36.80;17.40;;;;;;;3.38;100.00;61341.41;5091208;28;20092;-74
2021/11/07 01:53:39;;;;;;;38.13;17.42;;;;;;;3.39;100.00;61342.19;5073713;28;20048;-74
2021/11/07 01:56:15;;;;;;;40.50;17.88;;;;;;;3.38;100.00;61341.81;5071757;28;20080;-74
2021/11/07 01:58:44;;;;;;;42.05;20.00;;;;;;;3.38;100.00;61341.44;5093015;28;20130;-73
2021/11/07 02:01:12;;;;;;;42.22;19.42;;;;;;;3.38;100.00;61341.44;5072048;28;20108;-73
2021/11/07 02:03:39;;;;;;;46.92;22.70;;;;;;;3.37;100.00;61341.03;5052332;28;20225;-73
2021/11/07 02:06:07;;;;;;;40.85;19.00;;;;;;;3.38;100.00;61341.59;5073272;28;20049;-73
2021/11/07 02:08:34;;;;;;;34.63;18.60;;;;;;;3.38;100.00;61341.88;5063004;28;20147;-73
2021/11/07 02:11:01;;;;;;;36.25;19.10;;;;;;;3.38;100.00;61342.41;5064345;28;20123;-73
2021/11/07 02:13:29;;;;;;;35.58;16.13;;;;;;;3.39;100.00;61343.31;5088086;28;20131;-73
2021/11/07 02:15:57;;;;;;;43.25;19.20;;;;;;;3.40;100.00;61343.59;5070056;28;20493;-73
2021/11/07 02:18:25;;;;;;;37.33;18.25;;;;;;;3.40;100.00;61343.72;5080200;28;20493;-73
2021/11/07 02:20:53;;;;;;;37.08;19.88;;;;;;;3.40;100.00;61344.16;5082492;28;20131;-73
2021/11/07 02:23:22;;;;;;;42.45;19.55;;;;;;;3.40;100.00;61344.31;5067469;28;20582;-73
2021/11/07 02:25:52;;;;;;;42.13;21.80;;;;;;;3.41;100.00;61344.69;5066356;28;20390;-73
2021/11/07 02:28:48;;;;;;;36.97;18.92;;;;;;;3.41;100.00;61345.50;5064800;28;20601;-73
2021/11/07 02:31:18;;;;;;;39.58;20.33;;;;;;;3.42;100.00;61346.59;5076044;28;20147;-73
2021/11/07 02:33:46;;;;;;;39.90;20.55;;;;;;;3.43;100.00;61347.03;5082947;28;20083;-73
2021/11/07 02:36:16;;;;;;;35.33;18.05;;;;;;;3.43;100.00;61347.69;5069125;28;20135;-73
2021/11/07 02:38:46;;;;;;;40.83;20.17;;;;;;;3.44;100.00;61347.94;5061282;28;20048;-73
2021/11/07 02:41:13;;;;;;;40.78;20.65;;;;;;;3.44;100.00;61348.22;5078113;28;20502;-73
2021/11/07 02:43:42;;;;;;;40.05;21.15;;;;;;;3.44;100.00;61348.66;5064265;28;20072;-73
2021/11/07 02:46:15;;;;;;;41.30;20.80;;;;;;;3.44;100.00;61348.66;5086820;28;20083;-73
2021/11/07 02:48:50;;;;;;;36.65;16.88;;;;;;;3.45;100.00;61349.91;5085204;28;20123;-73
2021/11/07 02:51:27;;;;;;;35.60;17.23;;;;;;;3.46;100.00;61350.97;5072535;28;20115;-73
2021/11/07 02:53:58;;;;;;;34.05;16.70;;;;;;;3.47;100.00;61351.66;5080436;28;20050;-72
2021/11/07 02:56:25;;;;;;;40.70;20.17;;;;;;;3.47;100.00;61351.75;5098762;28;20056;-74
2021/11/07 02:58:53;;;;;;;37.40;21.05;;;;;;;3.48;100.00;61352.28;5077645;28;20117;-72
2021/11/07 03:01:22;;;;;;;35.88;19.70;;;;;;;3.48;100.00;61353.16;5098705;28;20494;-73
2021/11/07 03:03:51;;;;;;;33.15;16.60;;;;;;;3.49;100.00;61353.97;5089781;28;20084;-73
2021/11/07 03:06:19;;;;;;;45.30;19.67;;;;;;;3.50;100.00;61354.47;5064819;28;20151;-74
2021/11/07 03:08:50;;;;;;;32.05;18.08;;;;;;;3.51;100.00;61355.53;5083391;28;20123;-73
2021/11/07 03:11:18;;;;;;;34.28;18.83;;;;;;;3.52;100.00;61356.91;5079624;28;20626;-72
2021/11/07 03:13:48;;;;;;;35.83;18.63;;;;;;;3.53;100.00;61358.19;5083350;28;20453;-73
2021/11/07 03:16:15;;;;;;;40.13;20.27;;;;;;;3.53;100.00;61358.09;5080748;28;20376;-73
2021/11/07 03:18:43;;;;;;;37.13;18.17;;;;;;;3.53;100.00;61357.78;5085113;28;20086;-73
2021/11/07 03:21:15;;;;;;;35.13;16.73;;;;;;;3.52;100.00;61357.81;5055039;28;20141;-73
2021/11/07 03:23:49;;;;;;;34.95;18.98;;;;;;;3.52;100.00;61357.41;5088244;28;20072;-73
2021/11/07 03:26:19;;;;;;;34.72;18.88;;;;;;;3.52;100.00;61357.50;5070151;28;20060;-73
2021/11/07 03:28:48;;;;;;;31.35;17.65;;;;;;;3.52;100.00;61356.69;5074202;28;20106;-72
2021/11/07 03:31:27;;;;;;;28.90;17.65;;;;;;;3.52;100.00;61356.84;5090437;28;20144;-74
2021/11/07 03:33:59;;;;;;;30.02;16.65;;;;;;;3.52;100.00;61357.13;5068426;28;20044;-73
2021/11/07 03:36:26;;;;;;;30.33;16.40;;;;;;;3.52;100.00;61357.16;5088000;28;20462;-73
2021/11/07 03:38:54;;;;;;;35.42;17.30;;;;;;;3.52;100.00;61357.44;5061795;28;20118;-73
2021/11/07 03:41:22;;;;;;;35.58;18.40;;;;;;;3.52;100.00;61357.56;5089171;28;20149;-73
2021/11/07 03:43:50;;;;;;;30.73;17.40;;;;;;;3.52;100.00;61357.13;5073054;28;20529;-73
2021/11/07 03:46:17;;;;;;;31.77;17.08;;;;;;;3.52;100.00;61357.13;5084903;28;20504;-73
2021/11/07 03:48:45;;;;;;;29.77;16.05;;;;;;;3.52;100.00;61357.72;5093805;28;20048;-73
2021/11/07 03:51:15;;;;;;;30.52;17.00;;;;;;;3.52;100.00;61357.00;5082186;28;20157;-72
2021/11/07 03:53:43;;;;;;;33.55;18.83;;;;;;;3.51;100.00;61356.91;5090420;28;20052;-73
2021/11/07 03:56:10;;;;;;;36.88;19.70;;;;;;;3.51;100.00;61356.34;5084123;28;20101;-73
2021/11/07 03:58:38;;;;;;;34.40;18.05;;;;;;;3.50;100.00;61355.38;5070129;28;20115;-72
2021/11/07 04:01:05;;;;;;;38.40;18.98;;;;;;;3.50;100.00;61355.38;5086085;28;20570;-73
2021/11/07 04:03:33;;;;;;;30.77;17.08;;;;;;;3.51;100.00;61355.91;5061913;28;20459;-73
2021/11/07 04:06:00;;;;;;;32.58;16.60;;;;;;;3.51;100.00;61356.28;5072551;28;20565;-73
2021/11/07 04:08:28;;;;;;;33.35;17.40;;;;;;;3.50;100.00;61355.66;5052671;28;20135;-73
2021/11/07 04:10:55;;;;;;;43.42;20.23;;;;;;;3.50;100.00;61355.25;5086012;28;20098;-73
2021/11/07 04:13:23;;;;;;;40.22;20.63;;;;;;;3.49;100.00;61354.72;5080047;28;20158;-73
2021/11/07 04:15:51;;;;;;;27.55;14.55;;;;;;;3.49;100.00;61354.22;5069079;28;20094;-73
2021/11/07 04:18:18;;;;;;;37.15;19.90;;;;;;;3.48;100.00;61353.28;5067848;28;20147;-73
2021/11/07 04:20:45;;;;;;;35.97;18.05;;;;;;;3.47;100.00;61352.34;5088618;28;20123;-73
2021/11/07 04:23:13;;;;;;;39.45;17.23;;;;;;;3.46;100.00;61350.91;5086986;28;20044;-73
2021/11/07 04:25:41;;;;;;;40.90;19.25;;;;;;;3.45;100.00;61350.81;5072417;28;20040;-73
2021/11/07 04:28:08;;;;;;;37.08;20.00;;;;;;;3.45;100.00;61350.59;5068997;28;20048;-73
2021/11/07 04:30:36;;;;;;;38.25;20.67;;;;;;;3.45;100.00;61350.31;5085099;28;20083;-73
2021/11/07 04:33:03;;;;;;;44.58;21.05;;;;;;;3.44;100.00;61349.66;5069914;28;20127;-73
2021/11/07 04:35:31;;;;;;;41.45;20.67;;;;;;;3.43;100.00;61349.09;5090105;28;20083;-73
2021/11/07 04:37:58;;;;;;;42.72;19.98;;;;;;;3.43;100.00;61349.44;5073613;28;20043;-73
2021/11/07 04:40:26;;;;;;;45.60;18.05;;;;;;;3.43;100.00;61348.63;5073909;28;20142;-73
2021/11/07 04:42:54;;;;;;;39.25;18.77;;;;;;;3.42;100.00;61347.19;5073304;28;20048;-73
2021/11/07 04:45:22;;;;;;;38.72;15.90;;;;;;;3.41;100.00;61345.81;5068651;28;20124;-73
2021/11/07 04:47:49;;;;;;;42.55;20.00;;;;;;;3.40;100.00;61345.44;5071974;28;21582;-72
2021/11/07 04:50:18;;;;;;;36.95;17.90;;;;;;;3.40;100.00;61345.00;5069856;28;20108;-73
2021/11/07 04:52:46;;;;;;;40.65;16.80;;;;;;;3.39;100.00;61344.00;5071309;28;20139;-73
2021/11/07 04:55:14;;;;;;;40.33;20.85;;;;;;;3.39;100.00;61343.59;5071041;28;20158;-73
2021/11/07 04:57:42;;;;;;;42.53;21.02;;;;;;;3.38;100.00;61342.28;5076165;28;20126;-73
2021/11/07 05:00:17;;;;;;;32.55;16.05;;;;;;;3.38;100.00;61342.63;5067985;28;20147;-73
2021/11/07 05:02:45;;;;;;;36.40;17.35;;;;;;;3.38;100.00;61342.06;5072675;28;20060;-73
2021/11/07 05:05:14;;;;;;;40.72;20.70;;;;;;;3.37;100.00;61341.94;5065537;28;20048;-73
2021/11/07 05:07:41;;;;;;;47.95;20.48;;;;;;;3.37;100.00;61341.47;5090440;28;20067;-73
2021/11/07 05:10:09;;;;;;;34.38;16.77;;;;;;;3.37;100.00;61341.56;5063442;28;20131;-73
2021/11/07 05:12:37;;;;;;;41.78;20.05;;;;;;;3.37;100.00;61342.00;5070545;28;20137;-73
2021/11/07 05:15:05;;;;;;;29.48;15.25;;;;;;;3.37;100.00;61341.56;5088617;28;20123;-73
2021/11/07 05:17:32;;;;;;;41.95;21.23;;;;;;;3.37;100.00;61341.56;5055295;28;20123;-73
2021/11/07 05:20:00;;;;;;;45.28;19.23;;;;;;;3.36;100.00;61341.03;5061345;28;20147;-73
2021/11/07 05:22:27;;;;;;;41.72;19.35;;;;;;;3.36;100.00;61340.75;5083520;28;20056;-72
2021/11/07 05:24:54;;;;;;;46.55;21.80;;;;;;;3.35;100.00;61339.78;5081913;28;20139;-73
2021/11/07 05:27:22;;;;;;;40.53;18.13;;;;;;;3.35;100.00;61339.66;5068489;28;20299;-73
2021/11/07 05:29:49;;;;;;;29.23;13.40;;;;;;;3.34;100.00;61338.44;5075160;28;20102;-73
2021/11/07 05:32:17;;;;;;;40.28;19.65;;;;;;;3.33;100.00;61337.66;5088087;28;20513;-73
2021/11/07 05:34:46;;;;;;;50.88;22.95;;;;;;;3.33;100.00;61337.31;5078240;28;20132;-73
2021/11/07 05:37:13;;;;;;;42.70;21.83;;;;;;;3.32;100.00;61336.34;5068355;28;20526;-74
2021/11/07 05:39:41;;;;;;;50.10;21.90;;;;;;;3.31;100.00;61335.88;5067993;28;20056;-73
2021/11/07 05:42:10;;;;;;;41.03;19.77;;;;;;;3.31;100.00;61335.03;5065002;28;20130;-73
2021/11/07 05:44:38;;;;;;;43.88;19.88;;;;;;;3.30;100.00;61334.94;5070049;28;20124;-73
2021/11/07 05:47:05;;;;;;;40.28;19.10;;;;;;;3.30;100.00;61334.22;5090099;28;20115;-73
2021/11/07 05:49:33;;;;;;;43.65;20.60;;;;;;;3.29;100.00;61333.91;5068392;28;20167;-73
2021/11/07 05:52:00;;;;;;;41.20;17.27;;;;;;;3.28;100.00;61333.22;5085277;28;20078;-73
2021/11/07 05:54:28;;;;;;;36.85;18.13;;;;;;;3.28;100.00;61332.75;5085029;28;20079;-72
2021/11/07 05:56:57;;;;;;;33.88;15.98;;;;;;;3.27;100.00;61332.09;5091520;28;20048;-72
2021/11/07 05:59:24;;;;;;;45.40;22.17;;;;;;;3.26;100.00;61330.69;5082338;28;20072;-73
2021/11/07 06:01:52;;;;;;;41.33;20.45;;;;;;;3.25;100.00;61329.72;5067299;28;20070;-73
2021/11/07 06:04:19;;;;;;;46.97;19.95;;;;;;;3.24;100.00;61328.91;5086432;28;20112;-72
2021/11/07 06:06:47;;;;;;;72.85;34.28;;;;;;;3.24;100.00;61328.31;5067995;28;20075;-73
2021/11/07 06:09:14;;;;;;;50.70;20.23;;;;;;;3.23;100.00;61327.50;5089271;28;20118;-73
2021/11/07 06:11:41;;;;;;;49.78;24.23;;;;;;;3.23;100.00;61327.22;5054466;28;20484;-73
2021/11/07 06:14:09;;;;;;;41.10;17.98;;;;;;;3.22;100.00;61325.97;5081767;28;20432;-73
2021/11/07 06:16:36;;;;;;;45.00;19.05;;;;;;;3.21;100.00;61324.69;5066672;28;20129;-73
2021/11/07 06:19:05;;;;;;;40.35;18.00;;;;;;;3.21;100.00;61323.81;5075512;28;20055;-73
2021/11/07 06:21:34;;;;;;;35.40;16.73;;;;;;;3.20;100.00;61323.16;5083253;28;20083;-73
2021/11/07 06:24:06;;;;;;;33.40;14.77;;;;;;;3.19;100.00;61322.50;5079108;28;20116;-73
2021/11/07 06:26:33;;;;;;;41.10;18.92;;;;;;;3.18;100.00;61321.69;5078348;28;20075;-73
2021/11/07 06:29:01;;;;;;;43.65;20.38;;;;;;;3.17;100.00;61320.78;5050259;28;20036;-73
2021/11/07 06:31:29;;;;;;;43.97;20.60;;;;;;;3.17;100.00;61320.09;5052167;28;20083;-72
2021/11/07 06:33:56;;;;;;;37.35;18.00;;;;;;;3.16;100.00;61319.47;5083620;28;20126;-73
2021/11/07 06:36:24;;;;;;;41.63;17.48;;;;;;;3.16;100.00;61319.88;5071261;28;20487;-73
2021/11/07 06:38:51;;;;;;;41.88;20.80;;;;;;;3.16;100.00;61319.19;5086935;28;20123;-73
2021/11/07 06:41:19;;;;;;;33.90;15.70;;;;;;;3.15;100.00;61318.38;5086532;28;20413;-73
2021/11/07 06:43:46;;;;;;;45.92;20.27;;;;;;;3.15;100.00;61318.69;5064771;28;20076;-73
2021/11/07 06:46:14;;;;;;;36.97;17.08;;;;;;;3.14;100.00;61317.97;5068089;28;20048;-73
2021/11/07 06:48:41;;;;;;;35.00;17.95;;;;;;;3.16;100.00;61319.19;5070077;28;20056;-73
2021/11/07 06:51:08;;;;;;;38.35;19.02;;;;;;;3.15;100.00;61318.00;5083631;28;20126;-72
2021/11/07 06:53:37;;;;;;;36.10;18.90;;;;;;;3.14;100.00;61317.78;5067463;28;20094;-73
2021/11/07 06:56:06;;;;;;;27.52;13.60;;;;;;;3.14;100.00;61317.50;5050820;28;20565;-73
2021/11/07 06:58:33;;;;;;;30.08;14.60;;;;;;;3.14;100.00;61317.78;5088529;28;20139;-73
2021/11/07 07:01:00;;;;;;;36.75;16.55;;;;;;;3.14;100.00;61317.97;5090896;28;20127;-72
2021/11/07 07:03:28;;;;;;;33.03;15.63;;;;;;;3.14;100.00;61318.13;5075602;28;20132;-73
2021/11/07 07:05:56;;;;;;;33.75;17.13;;;;;;;3.15;100.00;61318.53;5073947;28;20079;-73
2021/11/07 07:08:25;;;;;;;26.20;14.57;;;;;;;3.15;100.00;61318.81;5087832;28;20131;-72
2021/11/07 07:11:01;;;;;;;29.30;14.43;;;;;;;3.14;100.00;61318.09;5068241;28;20131;-73
2021/11/07 07:13:36;;;;;;;29.48;16.17;;;;;;;3.15;100.00;61318.53;5075306;28;20522;-73
2021/11/07 07:18:54;;;;;;;25.80;12.95;;;;;;;3.14;100.00;61318.56;5063435;28;20068;-72
2021/11/07 07:32:00;;;;;;;27.77;14.60;;;;;;;3.16;100.00;61319.47;5085943;28;20083;-72
2021/11/07 07:34:28;;;;;;;22.27;12.85;;;;;;;3.16;100.00;61320.47;5073645;28;20156;-73
2021/11/07 07:36:56;;;;;;;22.73;11.27;;;;;;;3.17;100.00;61321.16;5071520;28;20136;-72
2021/11/07 07:39:23;;;;;;;20.83;10.98;;;;;;;3.17;100.00;61321.09;5071887;28;20051;-73
2021/11/07 07:41:51;;;;;;;18.70;11.10;;;;;;;3.18;100.00;61321.59;5087805;28;20237;-73
2021/11/07 07:44:19;;;;;;;22.33;12.48;;;;;;;3.19;100.00;61322.78;5082819;28;20072;-73
2021/11/07 07:46:46;;;;;;;19.55;10.45;;;;;;;3.20;100.00;61324.06;5086716;28;20723;-73
2021/11/07 07:49:16;;;;;;;19.13;10.05;;;;;;;3.21;100.00;61324.88;5081471;28;20063;-73
2021/11/07 07:51:45;;;;;;;16.65;8.88;;;;;;;3.21;100.00;61325.59;5088617;28;20082;-73
2021/11/07 07:54:13;;;;;;;15.05;8.63;;;;;;;3.23;100.00;61326.63;5091550;28;20084;-73
2021/11/07 07:56:41;;;;;;;25.83;12.40;;;;;;;3.23;100.00;61327.44;5085540;28;20072;-73
2021/11/07 07:59:09;;;;;;;24.13;12.77;;;;;;;3.24;100.00;61328.69;5070074;28;20208;-73
2021/11/07 08:01:36;;;;;;;20.75;11.13;;;;;;;3.25;100.00;61328.97;5085263;28;20453;-73
2021/11/07 08:04:04;;;;;;;15.82;8.18;;;;;;;3.26;100.00;61330.31;5066013;28;20097;-72
2021/11/07 08:06:31;;;;;;;20.08;10.65;;;;;;;3.27;100.00;61331.53;5077430;28;20235;-72
2021/11/07 08:08:59;;;;;;;24.38;12.13;;;;;;;3.28;100.00;61332.59;5080128;28;20122;-72
2021/11/07 08:11:27;;;;;;;20.67;11.25;;;;;;;3.30;100.00;61334.50;5074950;28;20115;-72
2021/11/07 08:13:54;;;;;;;18.15;10.32;;;;;;;3.32;100.00;61336.13;5060703;28;20047;-73
2021/11/07 08:16:23;;;;;;;21.67;10.95;;;;;;;3.33;100.00;61337.00;5061036;28;20078;-73
2021/11/07 08:18:51;;;;;;;16.17;8.93;;;;;;;3.34;100.00;61337.94;5076090;28;20127;-73
2021/11/07 08:21:19;;;;;;;17.63;10.80;;;;;;;3.35;100.00;61339.16;5078646;28;20077;-73
2021/11/07 08:23:49;;;;;;;12.85;8.20;;;;;;;3.37;100.00;61340.72;5065076;28;20088;-72
2021/11/07 08:26:17;;;;;;;18.58;9.45;;;;;;;3.39;100.00;61342.34;5066271;28;20561;-72
2021/11/07 08:28:46;;;;;;;14.93;7.90;;;;;;;3.40;100.00;61344.16;5056164;28;20071;-73
2021/11/07 08:31:22;;;;;;;13.98;7.65;;;;;;;3.41;100.00;61344.81;5060377;28;20060;-72
2021/11/07 08:33:49;;;;;;;19.35;10.32;;;;;;;3.42;100.00;61346.44;5083383;28;20110;-73
2021/11/07 08:36:24;;;;;;;14.98;8.40;;;;;;;3.44;100.00;61347.78;5088533;28;20127;-73
2021/11/07 08:38:58;;;;;;;12.80;7.45;;;;;;;3.45;100.00;61349.84;5073589;28;20167;-73
2021/11/07 08:41:28;;;;;;;21.30;9.52;;;;;;;3.48;100.00;61352.56;5074606;28;20086;-73
2021/11/07 09:01:17;;;;;;;17.75;9.43;;;;;;;3.59;100.00;61364.25;5090485;28;20159;-73
2021/11/07 09:03:52;;;;;;;15.40;8.45;;;;;;;3.61;100.00;61365.56;5088183;28;20135;-73
2021/11/07 09:08:50;;;;;;;11.30;6.30;;;;;;;3.65;100.00;61369.75;5071961;28;20040;-74
2021/11/07 09:11:18;;;;;;;8.88;5.60;;;;;;;3.66;100.00;61371.69;5064027;28;20067;-74
2021/11/07 09:13:47;;;;;;;10.98;6.32;;;;;;;3.68;100.00;61373.88;5070630;28;20204;-75
2021/11/07 09:16:15;;;;;;;7.85;4.22;;;;;;;3.70;100.00;61375.09;5072046;28;20170;-74
2021/11/07 09:18:43;;;;;;;12.00;6.00;;;;;;;3.72;100.00;61377.69;5085537;28;20044;-74
2021/11/07 09:21:21;;;;;;;8.73;4.97;;;;;;;3.73;100.00;61379.63;5067160;28;20052;-74
2021/11/07 09:23:52;;;;;;;10.95;6.97;;;;;;;3.76;100.00;61381.91;5064180;28;20076;-74
2021/11/07 09:28:52;;;;;;;11.63;6.32;;;;;;;3.79;100.00;61385.03;5080499;28;20135;-74
2021/11/07 09:44:15;;;;;;;9.25;5.10;;;;;;;3.85;100.00;61391.59;5083718;28;20139;-74
2021/11/07 09:46:47;;;;;;;11.35;6.78;;;;;;;3.87;100.00;61392.97;5071233;28;20101;-74
2021/11/07 09:49:20;;;;;;;11.73;7.00;;;;;;;3.88;100.00;61394.88;5066028;28;20127;-74
2021/11/07 09:52:00;;;;;;;9.77;5.72;;;;;;;3.90;100.00;61395.78;5070947;28;20058;-74
2021/11/07 09:54:29;;;;;;;11.63;6.40;;;;;;;3.91;100.00;61397.00;5087488;28;20167;-75
2021/11/07 09:57:00;;;;;;;8.02;4.88;;;;;;;3.92;100.00;61397.63;5064484;28;20421;-74
2021/11/07 09:59:28;;;;;;;5.75;3.40;;;;;;;3.92;100.00;61398.06;5078639;28;20128;-74
2021/11/07 10:01:57;;;;;;;10.63;3.03;;;;;;;3.92;100.00;61398.78;5064763;28;20044;-75
2021/11/07 10:04:26;;;;;;;8.43;4.63;;;;;;;3.93;100.00;61399.22;5082246;28;20583;-75
2021/11/07 10:06:58;;;;;;;5.05;3.08;;;;;;;3.93;100.00;61399.06;5087115;28;20064;-75
2021/11/07 10:09:38;;;;;;;9.60;4.30;;;;;;;3.93;100.00;61399.59;5082763;28;20052;-74
2021/11/07 10:12:10;;;;;;;5.47;3.10;;;;;;;3.93;100.00;61399.66;5082641;28;20508;-74
2021/11/07 10:14:46;;;;;;;7.28;3.80;;;;;;;3.93;100.00;61399.91;5053772;28;20056;-73
2021/11/07 10:17:36;;;;;;;5.82;3.65;;;;;;;3.93;100.00;61399.75;5063137;28;20151;-74
2021/11/07 10:22:43;;;;;;;5.35;3.60;;;;;;;3.95;100.00;61401.94;5065306;28;20087;-75
2021/11/07 10:25:17;;;;;;;6.72;3.38;;;;;;;3.96;100.00;61402.69;5081952;28;20064;-74
2021/11/07 10:27:49;;;;;;;6.75;2.92;;;;;;;3.98;100.00;61404.31;5071060;28;20143;-74
2021/11/07 10:30:23;;;;;;;6.18;2.20;;;;;;;3.98;100.00;61404.97;5066814;28;20525;-74
2021/11/07 10:33:02;;;;;;;5.65;2.67;;;;;;;4.00;100.00;61406.34;5035998;28;20051;-75
2021/11/07 10:35:58;;;;;;;7.70;3.90;;;;;;;4.01;100.00;61407.44;5063389;28;20466;-74
2021/11/07 10:39:05;;;;;;;6.30;3.33;;;;;;;4.03;100.00;61409.72;5073036;28;20058;-74
2021/11/07 10:44:24;;;;;;;4.40;2.40;;;;;;;4.06;100.00;61413.00;5064665;28;20088;-74
2021/11/07 10:52:37;;;;;;;7.88;3.08;;;;;;;4.12;100.00;61419.03;5072051;28;20050;-74
2021/11/07 10:55:19;;;;;;;4.50;2.30;;;;;;;4.14;100.00;61420.22;5075518;28;20660;-75
2021/11/07 10:57:49;;;;;;;6.03;3.45;;;;;;;4.16;100.00;61422.56;5068378;28;20130;-74
2021/11/07 11:00:24;;;;;;;6.25;3.33;;;;;;;4.18;100.00;61425.00;5065596;28;20051;-74
2021/11/07 11:02:53;;;;;;;5.57;3.20;;;;;;;4.20;100.00;61426.44;5087288;28;20468;-74
2021/11/07 11:05:25;;;;;;;5.22;2.50;;;;;;;4.22;100.00;61429.16;5083959;28;20056;-75
2021/11/07 11:08:00;;;;;;;4.03;2.53;;;;;;;4.24;100.00;61430.63;5065308;28;20402;-74
2021/11/07 11:27:23;;;;;;;5.53;2.72;;;;;;;4.35;100.00;61443.22;5046875;28;20399;-74
2021/11/07 11:30:09;;;;;;;4.83;2.60;;;;;;;4.37;100.00;61444.53;5082028;28;20146;-74
2021/11/07 11:43:32;;;;;;;5.88;4.00;;;;;;;4.46;100.00;61453.41;5068549;28;20465;-74
2021/11/07 11:46:10;;;;;;;7.65;2.72;;;;;;;4.46;100.00;61454.38;5081080;28;20331;-73
2021/11/07 11:52:06;;;;;;;5.78;3.08;;;;;;;4.49;100.00;61456.34;5070608;28;20055;-74
2021/11/07 11:54:47;;;;;;;7.10;3.78;;;;;;;4.50;100.00;61457.72;5068829;28;20086;-74
2021/11/07 12:08:15;;;;;;;6.00;3.58;;;;;;;4.57;100.00;61465.34;5071291;28;20439;-74
2021/11/07 12:11:10;;;;;;;7.60;4.65;;;;;;;4.59;100.00;61467.06;5082481;28;20040;-74
2021/11/07 12:16:26;;;;;;;7.70;4.07;;;;;;;4.63;100.00;61471.47;5064293;28;20131;-73
2021/11/07 12:19:10;;;;;;;9.03;4.63;;;;;;;4.65;100.00;61473.53;5071257;28;20470;-73
2021/11/07 12:21:55;;;;;;;7.85;4.13;;;;;;;4.67;100.00;61476.28;5076658;28;20574;-74
2021/11/07 12:24:32;;;;;;;12.32;4.97;;;;;;;4.69;100.00;61478.22;5062133;28;20057;-73
2021/11/07 12:27:26;;;;;;;9.63;5.45;;;;;;;4.70;100.00;61479.69;5079873;28;20068;-74
2021/11/07 12:29:53;;;;;;;;;;;;;;;4.71;100.00;61481.03;5080003;28;20139;-73
2021/11/07 12:32:24;;;;;;;12.35;6.13;;;;;;;4.73;100.00;61482.56;5082122;28;20015;-73
2021/11/07 12:34:56;;;;;;;8.10;4.25;;;;;;;4.75;100.00;61485.00;5087171;28;20170;-74
2021/11/07 12:41:05;;;;;;;9.13;5.45;;;;;;;4.78;100.00;61487.94;5006555;28;20311;-73
2021/11/07 12:43:46;;;;;;;9.20;4.38;;;;;;;4.80;100.00;61489.84;5058970;28;20476;-74
2021/11/07 12:49:08;;;;;;;7.53;4.35;;;;;;;4.83;100.00;61493.13;5069332;28;20431;-73
2021/11/07 12:51:44;;;;;;;7.80;4.75;;;;;;;4.84;100.00;61493.66;5088713;28;20173;-73
2021/11/07 12:54:27;;;;;;;10.10;5.53;;;;;;;4.84;100.00;61494.63;5057544;28;20117;-73
2021/11/07 12:57:05;;;;;;;12.82;7.25;;;;;;;4.85;100.00;61495.72;5065915;28;20236;-73
2021/11/07 12:59:42;;;;;;;5.47;3.58;;;;;;;4.87;100.00;61497.63;5072415;28;20413;-73
2021/11/07 13:02:19;;;;;;;12.25;5.78;;;;;;;4.89;100.00;61498.94;5086675;28;20079;-73
2021/11/07 13:05:27;;;;;;;11.32;6.40;;;;;;;4.90;100.00;61500.84;5083707;28;20144;-72
2021/11/07 13:08:05;;;;;;;9.70;4.47;;;;;;;4.91;100.00;61501.63;5068393;28;20481;-73
2021/11/07 13:11:22;;;;;;;13.32;4.93;;;;;;;4.93;100.00;61503.00;5065208;28;20123;-73
2021/11/07 13:13:46;;;;;;;8.50;4.78;;;;;;;4.94;100.00;61503.75;5068205;28;20493;-74
2021/11/07 13:22:12;;;;;;;8.38;4.60;;;;;;;4.97;100.00;61507.56;5065000;28;20064;-73
2021/11/07 13:27:29;;;;;;;16.80;5.28;;;;;;;5.00;100.00;61510.41;5085013;28;20056;-73
2021/11/07 13:30:13;;;;;;;7.03;4.60;;;;;;;5.01;100.00;61511.63;5054763;28;20105;-73
2021/11/07 13:32:41;;;;;;;6.45;3.65;;;;;;;5.03;100.00;61513.13;5064455;28;20498;-73
2021/11/07 13:35:24;;;;;;;6.22;3.60;;;;;;;5.04;100.00;61514.81;5082094;28;20413;-73
2021/11/07 13:38:07;;;;;;;6.75;3.80;;;;;;;5.05;100.00;61516.47;5081418;28;20084;-75
2021/11/07 13:40:39;;;;;;;8.68;3.90;;;;;;;5.07;100.00;61518.09;5064044;28;20125;-75
2021/11/07 13:43:12;;;;;;;7.63;4.32;;;;;;;5.08;100.00;61519.50;5070296;28;20052;-75
2021/11/07 13:45:41;;;;;;;;;;;;;;;5.09;100.00;61520.56;5063523;28;20564;-75
2021/11/07 13:48:30;;;;;;;11.70;6.43;;;;;;;5.11;100.00;61522.19;5082056;28;20025;-74
2021/11/07 13:50:59;;;;;;;8.25;4.60;;;;;;;5.13;100.00;61524.34;5047908;28;20461;-75
2021/11/07 13:53:32;;;;;;;6.38;3.58;;;;;;;5.14;100.00;61525.25;5084112;28;20425;-75
2021/11/07 13:56:03;;;;;;;7.07;4.20;;;;;;;5.15;100.00;61526.59;5065155;28;20095;-75
2021/11/07 13:58:33;;;;;;;9.07;4.45;;;;;;;5.17;100.00;61528.34;5053952;28;20143;-74
2021/11/07 14:01:21;;;;;;;9.07;5.13;;;;;;;5.18;100.00;61529.28;5043642;28;20140;-73
2021/11/07 14:03:56;;;;;;;10.85;5.32;;;;;;;5.20;100.00;61530.91;5084323;28;20480;-74
2021/11/07 14:06:34;;;;;;;13.35;6.30;;;;;;;5.21;100.00;61532.44;5078558;28;20143;-74
2021/11/07 14:09:03;;;;;;;13.18;6.68;;;;;;;5.22;100.00;61533.34;5077879;28;20482;-74